sensor_id;sensor_type;location;lat;lon;timestamp;pressure;altitude;pressure_sealevel;temperature;humidity
8334;BME280;4204;43.004;23.052;2023-07-13T00:01:17;94108.03;;;21.10;100.00
8334;BME280;4204;43.004;23.052;2023-07-13T00:03:45;94104.88;;;21.04;100.00
8334;BME280;4204;43.004;23.052;2023-07-13T00:06:13;94102.53;;;21.03;100.00
8334;BME280;4204;43.004;23.052;2023-07-13T00:08:42;94097.44;;;20.98;100.00
8334;BME280;4204;43.004;23.052;2023-07-13T00:11:10;94092.63;;;20.80;100.00
8334;BME280;4204;43.004;23.052;2023-07-13T00:13:37;94106.75;;;20.67;100.00
8334;BME280;4204;43.004;23.052;2023-07-13T00:16:05;94098.25;;;20.65;100.00
8334;BME280;4204;43.004;23.052;2023-07-13T00:18:33;94101.34;;;20.67;100.00
8334;BME280;4204;43.004;23.052;2023-07-13T00:21:01;94097.97;;;20.44;100.00
8334;BME280;4204;43.004;23.052;2023-07-13T00:23:32;94092.09;;;20.38;100.00
8334;BME280;4204;43.004;23.052;2023-07-13T00:26:03;94101.13;;;20.49;100.00
8334;BME280;4204;43.004;23.052;2023-07-13T00:28:32;94086.25;;;20.62;100.00
8334;BME280;4204;43.004;23.052;2023-07-13T00:31:00;94081.16;;;20.57;100.00
8334;BME280;4204;43.004;23.052;2023-07-13T00:33:28;94083.06;;;20.57;100.00
8334;BME280;4204;43.004;23.052;2023-07-13T00:35:57;94082.78;;;20.65;100.00
8334;BME280;4204;43.004;23.052;2023-07-13T00:38:26;94083.03;;;20.53;100.00
8334;BME280;4204;43.004;23.052;2023-07-13T00:40:54;94068.59;;;20.42;100.00
8334;BME280;4204;43.004;23.052;2023-07-13T00:43:27;94086.78;;;20.75;100.00
8334;BME280;4204;43.004;23.052;2023-07-13T00:46:24;94091.19;;;20.57;100.00
8334;BME280;4204;43.004;23.052;2023-07-13T00:48:54;94088.06;;;20.55;100.00
8334;BME280;4204;43.004;23.052;2023-07-13T00:51:26;94095.00;;;20.52;100.00
8334;BME280;4204;43.004;23.052;2023-07-13T00:53:59;94090.00;;;20.54;100.00
8334;BME280;4204;43.004;23.052;2023-07-13T00:56:28;94076.91;;;20.27;100.00
8334;BME280;4204;43.004;23.052;2023-07-13T00:58:59;94079.38;;;20.39;100.00
8334;BME280;4204;43.004;23.052;2023-07-13T01:01:27;94084.13;;;20.49;100.00
8334;BME280;4204;43.004;23.052;2023-07-13T01:03:55;94077.78;;;20.34;100.00
8334;BME280;4204;43.004;23.052;2023-07-13T01:06:23;94077.47;;;20.39;100.00
8334;BME280;4204;43.004;23.052;2023-07-13T01:08:51;94078.91;;;20.30;100.00
8334;BME280;4204;43.004;23.052;2023-07-13T01:11:20;94075.09;;;20.08;100.00
8334;BME280;4204;43.004;23.052;2023-07-13T01:13:48;94072.63;;;19.96;100.00
8334;BME280;4204;43.004;23.052;2023-07-13T01:16:23;94068.88;;;20.04;100.00
8334;BME280;4204;43.004;23.052;2023-07-13T01:18:51;94068.75;;;19.97;100.00
8334;BME280;4204;43.004;23.052;2023-07-13T01:21:20;94070.16;;;20.13;100.00
8334;BME280;4204;43.004;23.052;2023-07-13T01:23:48;94062.69;;;20.03;100.00
8334;BME280;4204;43.004;23.052;2023-07-13T01:26:16;94066.41;;;19.92;100.00
8334;BME280;4204;43.004;23.052;2023-07-13T01:28:44;94066.00;;;19.90;100.00
8334;BME280;4204;43.004;23.052;2023-07-13T01:31:12;94069.81;;;19.89;100.00
8334;BME280;4204;43.004;23.052;2023-07-13T01:33:40;94071.28;;;20.09;100.00
8334;BME280;4204;43.004;23.052;2023-07-13T01:36:09;94063.50;;;20.07;100.00
8334;BME280;4204;43.004;23.052;2023-07-13T01:38:39;94061.22;;;20.09;100.00
8334;BME280;4204;43.004;23.052;2023-07-13T01:41:07;94068.09;;;20.03;100.00
8334;BME280;4204;43.004;23.052;2023-07-13T01:43:35;94058.72;;;19.94;100.00
8334;BME280;4204;43.004;23.052;2023-07-13T01:46:03;94065.63;;;19.91;100.00
8334;BME280;4204;43.004;23.052;2023-07-13T01:48:30;94068.84;;;20.00;100.00
8334;BME280;4204;43.004;23.052;2023-07-13T01:50:58;94072.00;;;20.06;100.00
8334;BME280;4204;43.004;23.052;2023-07-13T01:53:26;94065.47;;;20.07;100.00
8334;BME280;4204;43.004;23.052;2023-07-13T01:55:55;94064.50;;;20.22;100.00
8334;BME280;4204;43.004;23.052;2023-07-13T01:58:22;94072.53;;;20.18;100.00
8334;BME280;4204;43.004;23.052;2023-07-13T02:00:49;94073.34;;;20.19;100.00
8334;BME280;4204;43.004;23.052;2023-07-13T02:03:18;94075.38;;;19.99;100.00
8334;BME280;4204;43.004;23.052;2023-07-13T02:05:46;94066.84;;;19.97;100.00
8334;BME280;4204;43.004;23.052;2023-07-13T02:08:13;94070.06;;;20.06;100.00
8334;BME280;4204;43.004;23.052;2023-07-13T02:10:41;94073.66;;;19.88;100.00
8334;BME280;4204;43.004;23.052;2023-07-13T02:13:10;94066.34;;;19.88;100.00
8334;BME280;4204;43.004;23.052;2023-07-13T02:15:39;94066.28;;;19.85;100.00
8334;BME280;4204;43.004;23.052;2023-07-13T02:18:07;94048.56;;;19.84;100.00
8334;BME280;4204;43.004;23.052;2023-07-13T02:20:35;94065.25;;;19.93;100.00
8334;BME280;4204;43.004;23.052;2023-07-13T02:23:02;94065.16;;;19.86;100.00
8334;BME280;4204;43.004;23.052;2023-07-13T02:25:30;94070.22;;;19.91;100.00
8334;BME280;4204;43.004;23.052;2023-07-13T02:27:58;94072.63;;;19.96;100.00
8334;BME280;4204;43.004;23.052;2023-07-13T02:30:27;94068.63;;;19.86;100.00
8334;BME280;4204;43.004;23.052;2023-07-13T02:32:56;94068.34;;;19.65;100.00
8334;BME280;4204;43.004;23.052;2023-07-13T02:35:23;94072.13;;;19.61;100.00
8334;BME280;4204;43.004;23.052;2023-07-13T02:37:51;94069.63;;;19.49;100.00
8334;BME280;4204;43.004;23.052;2023-07-13T02:40:19;94070.63;;;19.63;100.00
8334;BME280;4204;43.004;23.052;2023-07-13T02:42:47;94073.41;;;19.44;100.00
8334;BME280;4204;43.004;23.052;2023-07-13T02:45:15;94068.66;;;19.38;100.00
8334;BME280;4204;43.004;23.052;2023-07-13T02:47:44;94079.03;;;19.35;100.00
8334;BME280;4204;43.004;23.052;2023-07-13T02:50:12;94080.47;;;19.52;100.00
8334;BME280;4204;43.004;23.052;2023-07-13T02:52:39;94066.88;;;19.71;100.00
8334;BME280;4204;43.004;23.052;2023-07-13T02:55:08;94070.97;;;19.88;100.00
8334;BME280;4204;43.004;23.052;2023-07-13T02:57:36;94076.63;;;19.79;100.00
8334;BME280;4204;43.004;23.052;2023-07-13T03:00:05;94072.34;;;19.78;100.00
8334;BME280;4204;43.004;23.052;2023-07-13T03:02:34;94068.91;;;19.78;100.00
8334;BME280;4204;43.004;23.052;2023-07-13T03:05:04;94082.97;;;19.90;100.00
8334;BME280;4204;43.004;23.052;2023-07-13T03:07:32;94087.16;;;19.88;100.00
8334;BME280;4204;43.004;23.052;2023-07-13T03:10:00;94086.44;;;19.91;100.00
8334;BME280;4204;43.004;23.052;2023-07-13T03:12:38;94092.16;;;19.86;100.00
8334;BME280;4204;43.004;23.052;2023-07-13T03:15:10;94086.22;;;19.77;100.00
8334;BME280;4204;43.004;23.052;2023-07-13T03:17:42;94085.78;;;19.71;100.00
8334;BME280;4204;43.004;23.052;2023-07-13T03:20:11;94088.69;;;19.59;100.00
8334;BME280;4204;43.004;23.052;2023-07-13T03:22:39;94081.06;;;19.42;100.00
8334;BME280;4204;43.004;23.052;2023-07-13T03:25:08;94075.72;;;19.23;100.00
8334;BME280;4204;43.004;23.052;2023-07-13T03:27:36;94087.28;;;19.23;100.00
8334;BME280;4204;43.004;23.052;2023-07-13T03:30:06;94086.56;;;19.26;100.00
8334;BME280;4204;43.004;23.052;2023-07-13T03:32:35;94085.47;;;19.08;100.00
8334;BME280;4204;43.004;23.052;2023-07-13T03:35:03;94083.34;;;19.17;100.00
8334;BME280;4204;43.004;23.052;2023-07-13T03:37:33;94084.13;;;19.41;100.00
8334;BME280;4204;43.004;23.052;2023-07-13T03:40:01;94077.91;;;19.37;100.00
8334;BME280;4204;43.004;23.052;2023-07-13T03:42:31;94089.94;;;19.43;100.00
8334;BME280;4204;43.004;23.052;2023-07-13T03:44:58;94076.75;;;19.38;100.00
8334;BME280;4204;43.004;23.052;2023-07-13T03:47:26;94082.69;;;19.24;100.00
8334;BME280;4204;43.004;23.052;2023-07-13T03:49:55;94082.94;;;19.38;100.00
8334;BME280;4204;43.004;23.052;2023-07-13T03:52:22;94084.69;;;19.30;100.00
8334;BME280;4204;43.004;23.052;2023-07-13T03:54:52;94083.31;;;19.37;100.00
8334;BME280;4204;43.004;23.052;2023-07-13T03:57:21;94090.97;;;19.34;100.00
8334;BME280;4204;43.004;23.052;2023-07-13T03:59:49;94091.28;;;19.33;100.00
8334;BME280;4204;43.004;23.052;2023-07-13T04:02:18;94096.78;;;19.37;100.00
8334;BME280;4204;43.004;23.052;2023-07-13T04:04:46;94093.00;;;19.41;100.00
8334;BME280;4204;43.004;23.052;2023-07-13T04:07:13;94101.25;;;19.52;100.00
8334;BME280;4204;43.004;23.052;2023-07-13T04:09:41;94099.50;;;19.63;100.00
8334;BME280;4204;43.004;23.052;2023-07-13T04:12:12;94098.69;;;19.85;100.00
8334;BME280;4204;43.004;23.052;2023-07-13T04:14:40;94110.31;;;19.89;100.00
8334;BME280;4204;43.004;23.052;2023-07-13T04:17:08;94116.28;;;20.01;100.00
8334;BME280;4204;43.004;23.052;2023-07-13T04:19:35;94118.28;;;20.04;100.00
8334;BME280;4204;43.004;23.052;2023-07-13T04:22:04;94118.31;;;20.08;100.00
8334;BME280;4204;43.004;23.052;2023-07-13T04:24:31;94127.47;;;20.00;100.00
8334;BME280;4204;43.004;23.052;2023-07-13T04:26:59;94131.97;;;19.92;100.00
8334;BME280;4204;43.004;23.052;2023-07-13T04:29:30;94124.31;;;19.94;100.00
8334;BME280;4204;43.004;23.052;2023-07-13T04:31:58;94132.75;;;19.93;100.00
8334;BME280;4204;43.004;23.052;2023-07-13T04:34:26;94127.81;;;19.98;100.00
8334;BME280;4204;43.004;23.052;2023-07-13T04:36:53;94131.69;;;20.01;100.00
8334;BME280;4204;43.004;23.052;2023-07-13T04:39:21;94111.22;;;19.96;100.00
8334;BME280;4204;43.004;23.052;2023-07-13T04:41:48;94133.88;;;20.18;100.00
8334;BME280;4204;43.004;23.052;2023-07-13T04:44:16;94131.00;;;20.30;100.00
8334;BME280;4204;43.004;23.052;2023-07-13T04:46:45;94132.31;;;20.43;100.00
8334;BME280;4204;43.004;23.052;2023-07-13T04:49:13;94124.94;;;20.40;100.00
8334;BME280;4204;43.004;23.052;2023-07-13T04:51:41;94126.63;;;20.48;100.00
8334;BME280;4204;43.004;23.052;2023-07-13T04:54:08;94124.34;;;20.54;100.00
8334;BME280;4204;43.004;23.052;2023-07-13T04:56:36;94127.50;;;20.59;100.00
8334;BME280;4204;43.004;23.052;2023-07-13T04:59:04;94135.34;;;20.68;100.00
8334;BME280;4204;43.004;23.052;2023-07-13T05:01:32;94131.84;;;20.67;100.00
8334;BME280;4204;43.004;23.052;2023-07-13T05:04:01;94133.88;;;20.74;100.00
8334;BME280;4204;43.004;23.052;2023-07-13T05:06:29;94123.09;;;20.77;100.00
8334;BME280;4204;43.004;23.052;2023-07-13T05:08:57;94128.97;;;20.83;100.00
8334;BME280;4204;43.004;23.052;2023-07-13T05:11:25;94129.84;;;20.94;100.00
8334;BME280;4204;43.004;23.052;2023-07-13T05:13:53;94121.16;;;21.08;100.00
8334;BME280;4204;43.004;23.052;2023-07-13T05:16:21;94123.59;;;21.20;100.00
8334;BME280;4204;43.004;23.052;2023-07-13T05:18:49;94116.75;;;21.33;100.00
8334;BME280;4204;43.004;23.052;2023-07-13T05:21:18;94122.69;;;21.49;100.00
8334;BME280;4204;43.004;23.052;2023-07-13T05:23:47;94120.81;;;21.53;100.00
8334;BME280;4204;43.004;23.052;2023-07-13T05:26:15;94114.66;;;21.56;100.00
8334;BME280;4204;43.004;23.052;2023-07-13T05:28:43;94127.59;;;21.77;100.00
8334;BME280;4204;43.004;23.052;2023-07-13T05:31:10;94112.19;;;21.84;100.00
8334;BME280;4204;43.004;23.052;2023-07-13T05:33:38;94117.38;;;22.07;100.00
8334;BME280;4204;43.004;23.052;2023-07-13T05:36:06;94117.44;;;22.14;100.00
8334;BME280;4204;43.004;23.052;2023-07-13T05:38:35;94123.00;;;22.42;100.00
8334;BME280;4204;43.004;23.052;2023-07-13T05:41:03;94132.34;;;22.51;100.00
8334;BME280;4204;43.004;23.052;2023-07-13T05:43:31;94137.50;;;22.71;100.00
8334;BME280;4204;43.004;23.052;2023-07-13T05:45:59;94133.66;;;22.79;100.00
8334;BME280;4204;43.004;23.052;2023-07-13T05:48:29;94134.13;;;22.98;100.00
8334;BME280;4204;43.004;23.052;2023-07-13T05:50:56;94140.75;;;23.15;100.00
8334;BME280;4204;43.004;23.052;2023-07-13T05:53:24;94145.06;;;23.26;100.00
8334;BME280;4204;43.004;23.052;2023-07-13T05:55:54;94138.53;;;23.38;100.00
8334;BME280;4204;43.004;23.052;2023-07-13T05:58:22;94150.19;;;23.63;100.00
8334;BME280;4204;43.004;23.052;2023-07-13T06:00:59;94155.63;;;23.91;100.00
8334;BME280;4204;43.004;23.052;2023-07-13T06:03:28;94146.31;;;24.03;100.00
8334;BME280;4204;43.004;23.052;2023-07-13T06:05:56;94141.28;;;24.16;100.00
8334;BME280;4204;43.004;23.052;2023-07-13T06:08:23;94150.19;;;24.34;100.00
8334;BME280;4204;43.004;23.052;2023-07-13T06:10:53;94144.31;;;24.53;100.00
8334;BME280;4204;43.004;23.052;2023-07-13T06:13:20;94154.00;;;24.61;100.00
8334;BME280;4204;43.004;23.052;2023-07-13T06:15:48;94148.56;;;24.75;100.00
8334;BME280;4204;43.004;23.052;2023-07-13T06:18:16;94147.69;;;24.96;100.00
8334;BME280;4204;43.004;23.052;2023-07-13T06:20:44;94145.69;;;25.10;100.00
8334;BME280;4204;43.004;23.052;2023-07-13T06:23:12;94151.06;;;25.28;100.00
8334;BME280;4204;43.004;23.052;2023-07-13T06:25:40;94156.06;;;25.47;100.00
8334;BME280;4204;43.004;23.052;2023-07-13T06:28:09;94155.50;;;25.70;100.00
8334;BME280;4204;43.004;23.052;2023-07-13T06:30:38;94154.69;;;25.76;100.00
8334;BME280;4204;43.004;23.052;2023-07-13T06:33:05;94154.28;;;25.78;100.00
8334;BME280;4204;43.004;23.052;2023-07-13T06:35:33;94146.03;;;25.88;100.00
8334;BME280;4204;43.004;23.052;2023-07-13T06:38:01;94131.16;;;25.96;100.00
8334;BME280;4204;43.004;23.052;2023-07-13T06:40:29;94146.19;;;26.18;100.00
8334;BME280;4204;43.004;23.052;2023-07-13T06:42:57;94128.59;;;26.26;100.00
8334;BME280;4204;43.004;23.052;2023-07-13T06:45:26;94138.91;;;26.45;100.00
8334;BME280;4204;43.004;23.052;2023-07-13T06:47:54;94136.13;;;26.53;100.00
8334;BME280;4204;43.004;23.052;2023-07-13T06:50:22;94133.25;;;26.67;100.00
8334;BME280;4204;43.004;23.052;2023-07-13T06:52:49;94132.69;;;26.82;100.00
8334;BME280;4204;43.004;23.052;2023-07-13T06:55:17;94127.91;;;26.93;100.00
8334;BME280;4204;43.004;23.052;2023-07-13T06:58:14;94136.19;;;27.16;100.00
8334;BME280;4204;43.004;23.052;2023-07-13T07:00:44;94136.13;;;27.20;100.00
8334;BME280;4204;43.004;23.052;2023-07-13T07:03:12;94135.63;;;27.29;100.00
8334;BME280;4204;43.004;23.052;2023-07-13T07:05:40;94137.41;;;27.42;100.00
8334;BME280;4204;43.004;23.052;2023-07-13T07:08:08;94131.72;;;27.60;100.00
8334;BME280;4204;43.004;23.052;2023-07-13T07:10:36;94117.47;;;27.72;100.00
8334;BME280;4204;43.004;23.052;2023-07-13T07:13:04;94116.47;;;27.85;100.00
8334;BME280;4204;43.004;23.052;2023-07-13T07:15:31;94114.41;;;27.93;100.00
8334;BME280;4204;43.004;23.052;2023-07-13T07:18:00;94113.72;;;28.12;100.00
8334;BME280;4204;43.004;23.052;2023-07-13T07:20:28;94121.34;;;28.24;100.00
8334;BME280;4204;43.004;23.052;2023-07-13T07:22:56;94119.97;;;28.36;100.00
8334;BME280;4204;43.004;23.052;2023-07-13T07:25:24;94117.81;;;28.47;100.00
8334;BME280;4204;43.004;23.052;2023-07-13T07:27:52;94126.78;;;28.70;100.00
8334;BME280;4204;43.004;23.052;2023-07-13T07:30:20;94126.72;;;28.94;100.00
8334;BME280;4204;43.004;23.052;2023-07-13T07:32:47;94121.88;;;29.21;100.00
8334;BME280;4204;43.004;23.052;2023-07-13T07:35:16;94122.56;;;29.25;100.00
8334;BME280;4204;43.004;23.052;2023-07-13T07:37:44;94114.63;;;29.30;100.00
8334;BME280;4204;43.004;23.052;2023-07-13T07:40:12;94116.88;;;29.35;100.00
8334;BME280;4204;43.004;23.052;2023-07-13T07:42:39;94117.47;;;29.43;100.00
8334;BME280;4204;43.004;23.052;2023-07-13T07:45:08;94123.59;;;29.50;100.00
8334;BME280;4204;43.004;23.052;2023-07-13T07:47:37;94127.88;;;29.51;100.00
8334;BME280;4204;43.004;23.052;2023-07-13T07:50:06;94108.88;;;29.61;100.00
8334;BME280;4204;43.004;23.052;2023-07-13T07:52:35;94109.75;;;29.74;100.00
8334;BME280;4204;43.004;23.052;2023-07-13T07:55:04;94114.53;;;29.70;100.00
8334;BME280;4204;43.004;23.052;2023-07-13T07:57:32;94112.09;;;29.75;100.00
8334;BME280;4204;43.004;23.052;2023-07-13T08:00:00;94109.94;;;29.83;100.00
8334;BME280;4204;43.004;23.052;2023-07-13T08:02:29;94100.44;;;29.87;100.00
8334;BME280;4204;43.004;23.052;2023-07-13T08:04:56;94096.06;;;29.90;100.00
8334;BME280;4204;43.004;23.052;2023-07-13T08:07:24;94090.34;;;30.00;100.00
8334;BME280;4204;43.004;23.052;2023-07-13T08:09:53;94095.63;;;30.07;100.00
8334;BME280;4204;43.004;23.052;2023-07-13T08:12:21;94092.09;;;30.07;100.00
8334;BME280;4204;43.004;23.052;2023-07-13T08:14:50;94096.75;;;30.10;100.00
8334;BME280;4204;43.004;23.052;2023-07-13T08:17:19;94104.19;;;30.09;100.00
8334;BME280;4204;43.004;23.052;2023-07-13T08:19:47;94098.34;;;30.23;100.00
8334;BME280;4204;43.004;23.052;2023-07-13T08:22:15;94099.81;;;30.28;100.00
8334;BME280;4204;43.004;23.052;2023-07-13T08:24:43;94102.91;;;30.30;100.00
8334;BME280;4204;43.004;23.052;2023-07-13T08:27:12;94107.97;;;30.31;100.00
8334;BME280;4204;43.004;23.052;2023-07-13T08:29:40;94112.94;;;30.37;100.00
8334;BME280;4204;43.004;23.052;2023-07-13T08:32:08;94117.72;;;30.49;100.00
8334;BME280;4204;43.004;23.052;2023-07-13T08:34:37;94127.41;;;30.53;100.00
8334;BME280;4204;43.004;23.052;2023-07-13T08:37:06;94129.22;;;30.60;100.00
8334;BME280;4204;43.004;23.052;2023-07-13T08:39:34;94139.47;;;30.72;100.00
8334;BME280;4204;43.004;23.052;2023-07-13T08:42:04;94139.91;;;30.86;100.00
8334;BME280;4204;43.004;23.052;2023-07-13T08:44:41;94136.88;;;30.97;100.00
8334;BME280;4204;43.004;23.052;2023-07-13T08:47:14;94143.38;;;31.03;100.00
8334;BME280;4204;43.004;23.052;2023-07-13T08:49:44;94137.97;;;30.99;100.00
8334;BME280;4204;43.004;23.052;2023-07-13T08:52:28;94138.44;;;31.10;100.00
8334;BME280;4204;43.004;23.052;2023-07-13T08:54:58;94140.78;;;31.12;100.00
8334;BME280;4204;43.004;23.052;2023-07-13T08:57:33;94145.03;;;31.13;100.00
8334;BME280;4204;43.004;23.052;2023-07-13T09:00:04;94137.81;;;31.19;100.00
8334;BME280;4204;43.004;23.052;2023-07-13T09:02:40;94145.75;;;31.30;100.00
8334;BME280;4204;43.004;23.052;2023-07-13T09:05:13;94147.19;;;31.34;100.00
8334;BME280;4204;43.004;23.052;2023-07-13T09:07:55;94144.16;;;31.45;100.00
8334;BME280;4204;43.004;23.052;2023-07-13T09:10:28;94140.63;;;31.44;100.00
8334;BME280;4204;43.004;23.052;2023-07-13T09:13:12;94138.88;;;31.50;100.00
8334;BME280;4204;43.004;23.052;2023-07-13T09:15:44;94137.13;;;31.56;100.00
8334;BME280;4204;43.004;23.052;2023-07-13T09:18:16;94131.28;;;31.54;100.00
8334;BME280;4204;43.004;23.052;2023-07-13T09:20:50;94132.75;;;31.71;100.00
8334;BME280;4204;43.004;23.052;2023-07-13T09:23:23;94120.84;;;31.87;100.00
8334;BME280;4204;43.004;23.052;2023-07-13T09:25:53;94126.69;;;31.89;100.00
8334;BME280;4204;43.004;23.052;2023-07-13T09:28:24;94118.78;;;32.04;100.00
8334;BME280;4204;43.004;23.052;2023-07-13T09:31:00;94114.91;;;32.14;100.00
8334;BME280;4204;43.004;23.052;2023-07-13T09:33:28;94112.47;;;32.16;100.00
8334;BME280;4204;43.004;23.052;2023-07-13T09:35:57;94105.25;;;32.09;100.00
8334;BME280;4204;43.004;23.052;2023-07-13T09:38:28;94105.13;;;32.13;100.00
8334;BME280;4204;43.004;23.052;2023-07-13T09:41:04;94110.72;;;32.22;100.00
8334;BME280;4204;43.004;23.052;2023-07-13T09:43:36;94104.97;;;32.29;100.00
8334;BME280;4204;43.004;23.052;2023-07-13T09:46:20;94097.91;;;32.40;100.00
8334;BME280;4204;43.004;23.052;2023-07-13T09:48:48;94116.19;;;32.47;100.00
8334;BME280;4204;43.004;23.052;2023-07-13T09:51:16;94105.50;;;32.49;100.00
8334;BME280;4204;43.004;23.052;2023-07-13T09:53:44;94101.00;;;32.30;100.00
8334;BME280;4204;43.004;23.052;2023-07-13T09:56:22;94105.56;;;32.58;100.00
8334;BME280;4204;43.004;23.052;2023-07-13T09:58:50;94102.97;;;32.54;100.00
8334;BME280;4204;43.004;23.052;2023-07-13T10:01:31;94102.00;;;32.70;100.00
8334;BME280;4204;43.004;23.052;2023-07-13T10:04:00;94093.56;;;32.64;100.00
8334;BME280;4204;43.004;23.052;2023-07-13T10:06:28;94084.28;;;32.71;100.00
8334;BME280;4204;43.004;23.052;2023-07-13T10:08:56;94088.56;;;32.72;100.00
8334;BME280;4204;43.004;23.052;2023-07-13T10:11:53;94081.31;;;32.87;100.00
8334;BME280;4204;43.004;23.052;2023-07-13T10:14:22;94079.44;;;32.84;100.00
8334;BME280;4204;43.004;23.052;2023-07-13T10:16:58;94074.00;;;32.93;100.00
8334;BME280;4204;43.004;23.052;2023-07-13T10:19:31;94072.25;;;32.99;100.00
8334;BME280;4204;43.004;23.052;2023-07-13T10:22:02;94074.75;;;33.06;100.00
8334;BME280;4204;43.004;23.052;2023-07-13T10:24:32;94062.63;;;33.04;100.00
8334;BME280;4204;43.004;23.052;2023-07-13T10:27:16;94063.09;;;33.02;100.00
8334;BME280;4204;43.004;23.052;2023-07-13T10:29:47;94059.34;;;33.18;100.00
8334;BME280;4204;43.004;23.052;2023-07-13T10:32:19;94063.88;;;33.33;100.00
8334;BME280;4204;43.004;23.052;2023-07-13T10:34:48;94056.34;;;33.34;100.00
8334;BME280;4204;43.004;23.052;2023-07-13T10:37:21;94045.22;;;33.46;100.00
8334;BME280;4204;43.004;23.052;2023-07-13T10:39:54;94031.84;;;33.36;100.00
8334;BME280;4204;43.004;23.052;2023-07-13T10:42:28;94044.91;;;33.44;100.00
8334;BME280;4204;43.004;23.052;2023-07-13T10:44:57;94052.56;;;33.40;100.00
8334;BME280;4204;43.004;23.052;2023-07-13T10:47:27;94046.47;;;33.45;100.00
8334;BME280;4204;43.004;23.052;2023-07-13T10:49:58;94051.13;;;33.58;100.00
8334;BME280;4204;43.004;23.052;2023-07-13T10:52:41;94042.38;;;33.50;100.00
8334;BME280;4204;43.004;23.052;2023-07-13T10:55:33;94032.28;;;33.56;100.00
8334;BME280;4204;43.004;23.052;2023-07-13T10:58:03;94034.59;;;33.58;100.00
8334;BME280;4204;43.004;23.052;2023-07-13T11:00:46;94035.56;;;33.73;100.00
8334;BME280;4204;43.004;23.052;2023-07-13T11:03:19;94031.88;;;33.76;100.00
8334;BME280;4204;43.004;23.052;2023-07-13T11:05:49;94028.66;;;33.77;100.00
8334;BME280;4204;43.004;23.052;2023-07-13T11:08:33;94027.72;;;33.71;100.00
8334;BME280;4204;43.004;23.052;2023-07-13T11:11:03;94023.28;;;33.74;100.00
8334;BME280;4204;43.004;23.052;2023-07-13T11:13:55;94017.00;;;33.73;100.00
8334;BME280;4204;43.004;23.052;2023-07-13T11:16:37;94022.94;;;33.63;100.00
8334;BME280;4204;43.004;23.052;2023-07-13T11:19:26;94026.47;;;33.54;100.00
8334;BME280;4204;43.004;23.052;2023-07-13T11:22:11;94017.41;;;33.63;100.00
8334;BME280;4204;43.004;23.052;2023-07-13T11:24:56;94028.97;;;33.79;100.00
8334;BME280;4204;43.004;23.052;2023-07-13T11:27:43;94010.94;;;33.96;100.00
8334;BME280;4204;43.004;23.052;2023-07-13T11:30:25;94007.47;;;34.23;100.00
8334;BME280;4204;43.004;23.052;2023-07-13T11:33:11;94009.31;;;34.44;100.00
8334;BME280;4204;43.004;23.052;2023-07-13T11:35:50;93990.91;;;34.50;100.00
8334;BME280;4204;43.004;23.052;2023-07-13T11:38:22;94001.66;;;34.66;100.00
8334;BME280;4204;43.004;23.052;2023-07-13T11:40:54;94004.56;;;34.63;100.00
8334;BME280;4204;43.004;23.052;2023-07-13T11:43:23;93999.50;;;34.61;100.00
8334;BME280;4204;43.004;23.052;2023-07-13T11:45:51;93995.66;;;34.50;100.00
8334;BME280;4204;43.004;23.052;2023-07-13T11:48:25;93986.16;;;34.60;100.00
8334;BME280;4204;43.004;23.052;2023-07-13T11:50:58;93991.38;;;34.67;100.00
8334;BME280;4204;43.004;23.052;2023-07-13T11:53:29;93977.69;;;34.72;100.00
8334;BME280;4204;43.004;23.052;2023-07-13T11:55:57;93974.91;;;34.72;100.00
8334;BME280;4204;43.004;23.052;2023-07-13T11:58:26;93976.28;;;34.77;100.00
8334;BME280;4204;43.004;23.052;2023-07-13T12:00:58;93970.78;;;34.77;100.00
8334;BME280;4204;43.004;23.052;2023-07-13T12:03:28;93969.06;;;34.88;100.00
8334;BME280;4204;43.004;23.052;2023-07-13T12:06:00;93965.19;;;34.95;100.00
8334;BME280;4204;43.004;23.052;2023-07-13T12:08:29;93962.44;;;35.04;100.00
8334;BME280;4204;43.004;23.052;2023-07-13T12:11:01;93965.19;;;35.13;100.00
8334;BME280;4204;43.004;23.052;2023-07-13T12:13:36;93954.38;;;35.24;100.00
8334;BME280;4204;43.004;23.052;2023-07-13T12:16:13;93950.84;;;35.24;100.00
8334;BME280;4204;43.004;23.052;2023-07-13T12:18:44;93955.69;;;35.05;100.00
8334;BME280;4204;43.004;23.052;2023-07-13T12:21:19;93956.72;;;35.17;100.00
8334;BME280;4204;43.004;23.052;2023-07-13T12:23:48;93948.13;;;35.15;100.00
8334;BME280;4204;43.004;23.052;2023-07-13T12:26:17;93948.13;;;35.15;100.00
8334;BME280;4204;43.004;23.052;2023-07-13T12:28:47;93947.03;;;35.12;100.00
8334;BME280;4204;43.004;23.052;2023-07-13T12:31:26;93948.59;;;35.13;100.00
8334;BME280;4204;43.004;23.052;2023-07-13T12:33:57;93938.13;;;35.17;100.00
8334;BME280;4204;43.004;23.052;2023-07-13T12:36:30;93939.94;;;35.20;100.00
8334;BME280;4204;43.004;23.052;2023-07-13T12:39:04;93933.91;;;35.31;100.00
8334;BME280;4204;43.004;23.052;2023-07-13T12:41:39;93923.78;;;35.28;100.00
8334;BME280;4204;43.004;23.052;2023-07-13T12:44:10;93935.69;;;35.43;100.00
8334;BME280;4204;43.004;23.052;2023-07-13T12:46:38;93922.03;;;35.48;100.00
8334;BME280;4204;43.004;23.052;2023-07-13T12:49:07;93926.84;;;35.30;100.00
8334;BME280;4204;43.004;23.052;2023-07-13T12:51:37;93915.28;;;35.40;100.00
8334;BME280;4204;43.004;23.052;2023-07-13T12:54:12;93916.72;;;35.59;100.00
8334;BME280;4204;43.004;23.052;2023-07-13T12:56:41;93923.72;;;35.37;100.00
8334;BME280;4204;43.004;23.052;2023-07-13T12:59:16;93908.00;;;35.52;100.00
8334;BME280;4204;43.004;23.052;2023-07-13T13:01:46;93895.06;;;35.58;100.00
8334;BME280;4204;43.004;23.052;2023-07-13T13:04:14;93902.53;;;35.66;100.00
8334;BME280;4204;43.004;23.052;2023-07-13T13:06:43;93908.91;;;35.82;100.00
8334;BME280;4204;43.004;23.052;2023-07-13T13:09:12;93903.38;;;35.82;100.00
8334;BME280;4204;43.004;23.052;2023-07-13T13:11:41;93902.41;;;35.85;100.00
8334;BME280;4204;43.004;23.052;2023-07-13T13:14:09;93902.31;;;35.79;100.00
8334;BME280;4204;43.004;23.052;2023-07-13T13:16:45;93898.28;;;35.80;100.00